Flight Track Log - Related Links

Times and Time Zones

All times are in EDT time to prevent confusion due to time zone crossing. See the GGA1 flight status page for this flight to view local times or setup timezone preferences in your user account.

Time Position Orientation Groundspeed Altitude Reporting Facility
EDT Latitude Longitude Course Direction KTS MPH feet Rate Location/Type
Fri 10:05:57 PM 30.7983 -83.2794 360° North 123 142 1,000  Level Jacksonville Center
Fri 10:06:57 PM 30.8192 -83.3208 300° West 135 155 3,500 2,038 Climbing Jacksonville Center
Fri 10:07:43 PM 30.8378 -83.3403 318° Northwest 268 308 4,600 1,967 Climbing Jacksonville Center
Fri 10:07:58 PM 30.8461 -83.3522 309° West 146 168 5,500 2,300 Climbing Jacksonville Center
Fri 10:08:43 PM 30.8669 -83.3717 321° Northwest 181 208 6,900 2,200 Climbing Jacksonville Center
Fri 10:08:58 PM 30.8753 -83.3839 308° West 140 161 7,700 2,000 Climbing Jacksonville Center
Fri 10:09:43 PM 30.8961 -83.4033 321° Northwest 167 192 8,900 1,770 Climbing Jacksonville Center
Fri 10:09:59 PM 30.9003 -83.4156 292° West 139 160 9,500 2,100 Climbing Jacksonville Center
Fri 10:10:00 PM 30.9819 -83.5061 316° Northwest  Level Estimated
Fri 10:10:43 PM 30.9231 -83.4350 324° Northwest 147 169 11,000  Level Jacksonville Center
Fri 10:11:00 PM 30.9314 -83.4497 303° West 141 162 11,600 1,800 Climbing Jacksonville Center
Fri 10:11:43 PM 30.9500 -83.4667 322° Northwest 141 162 12,800 1,800 Climbing Jacksonville Center
Fri 10:12:00 PM 30.9606 -83.4836 306° West 150 173 13,400 1,200 Climbing Jacksonville Center
Fri 10:12:43 PM 30.9833 -83.5056 320° Northwest 146 168 14,000 492 Climbing Jacksonville Center
Fri 10:13:01 PM 30.9978 -83.5228 314° West 190 219 13,900 -77 Descending Jacksonville Center
Fri 10:14:01 PM 31.0414 -83.5714 316° Northwest 221 254 13,900 59 Level Jacksonville Center
Fri 10:14:43 PM 31.0706 -83.6033 317° Northwest 205 236 14,000  Climbing Jacksonville Center
Fri 10:15:02 PM 31.0892 -83.6253 315° West 229 264 13,900  Descending Jacksonville Center
Fri 10:15:43 PM 31.1139 -83.6569 312° West 226 260 14,000  Climbing Jacksonville Center
Fri 10:16:03 PM 31.1306 -83.6789 312° West 231 266 13,900  Descending Jacksonville Center
Fri 10:16:43 PM 31.1617 -83.7108 319° Northwest 226 260 14,000  Climbing Jacksonville Center
Fri 10:17:03 PM 31.1803 -83.7328 315° West 231 266 13,900  Descending Jacksonville Center
Fri 10:17:43 PM 31.2072 -83.7622 317° Northwest 226 260 14,000  Climbing Jacksonville Center
Fri 10:18:04 PM 31.2239 -83.7867 309° West 231 266 13,900  Descending Jacksonville Center
Fri 10:18:43 PM 31.2528 -83.8161 319° Northwest 226 260 14,000  Climbing Jacksonville Center
Fri 10:19:05 PM 31.2714 -83.8406 312° West 232 267 13,900  Descending Jacksonville Center
Fri 10:19:43 PM 31.2983 -83.8700 317° Northwest 226 260 14,000  Climbing Jacksonville Center
Fri 10:20:05 PM 31.3192 -83.8969 312° West 233 268 13,900  Descending Jacksonville Center
Fri 10:20:43 PM 31.3439 -83.9239 317° Northwest 226 260 14,000  Climbing Jacksonville Center
Fri 10:21:06 PM 31.3644 -83.9508 312° West 234 269 13,900  Descending Jacksonville Center
Fri 10:21:43 PM 31.3914 -83.9756 322° Northwest 226 260 14,000 100 Climbing Jacksonville Center
Fri 10:22:06 PM 31.4100 -84.0050 307° West 234 269 14,000  Level Jacksonville Center
Fri 10:22:43 PM 31.4389 -84.0369 317° Northwest 226 260 14,000 -98 Level Jacksonville Center
Fri 10:23:07 PM 31.4575 -84.0567 318° Northwest 233 268 13,900  Descending Jacksonville Center
Fri 10:23:43 PM 31.4864 -84.0889 316° Northwest 226 260 14,000 98 Climbing Jacksonville Center
Fri 10:24:08 PM 31.5050 -84.1133 312° West 232 267 14,000 100 Level Jacksonville Center
Fri 10:24:43 PM 31.5278 -84.1453 310° West 226 260 14,100  Climbing Jacksonville Center
Fri 10:25:08 PM 31.5442 -84.1700 308° West 232 267 14,000  Descending Jacksonville Center
Fri 10:25:43 PM 31.5625 -84.2092 299° West 226 260 14,100  Climbing Jacksonville Center
Fri 10:26:09 PM 31.5789 -84.2386 303° West 233 268 14,000 -100 Descending Jacksonville Center
Fri 10:26:43 PM 31.5994 -84.2708 307° West 231 266 14,000  Level Jacksonville Center
Fri 10:27:09 PM 31.6117 -84.2978 298° West 232 267 14,000 100 Level Jacksonville Center
Fri 10:27:43 PM 31.6344 -84.3322 308° West 231 266 14,100  Climbing Jacksonville Center
Fri 10:28:10 PM 31.6486 -84.3642 298° West 231 266 14,000 -68 Descending Jacksonville Center
Fri 10:29:11 PM 31.6853 -84.4283 304° West 232 267 14,000 -50 Level Jacksonville Center
Fri 10:30:11 PM 31.7244 -84.4875 308° West 233 268 13,900  Descending Jacksonville Center
Fri 10:31:12 PM 31.7781 -84.5347 323° Northwest 241 277 14,000 68 Climbing Jacksonville Center
Fri 10:33:08 PM 31.8703 -84.6356 317° Northwest 232 267 14,100 34 Climbing Atlanta Center
Fri 10:34:08 PM 31.9181 -84.6872 317° Northwest 232 267 14,100  Level Atlanta Center
Fri 10:35:08 PM 31.9658 -84.7367 319° Northwest 232 267 14,100  Level Atlanta Center
Fri 10:36:08 PM 32.0156 -84.7908 317° Northwest 237 273 14,100  Level Atlanta Center
Fri 10:37:08 PM 32.0633 -84.8428 317° Northwest 237 273 14,100 -500 Level Atlanta Center
Fri 10:38:08 PM 32.1111 -84.8969 316° Northwest 237 273 13,100 -1,150 Descending Atlanta Center
Fri 10:39:08 PM 32.1650 -84.9517 319° Northwest 247 284 11,800 -1,300 Descending Atlanta Center
Fri 10:40:08 PM 32.2167 -85.0061 318° Northwest 247 284 10,500 -1,250 Descending Atlanta Center
Fri 10:41:08 PM 32.2642 -85.0558 318° Northwest 247 284 9,300 -1,250 Descending Atlanta Center
Fri 10:42:08 PM 32.3139 -85.1103 317° Northwest 247 284 8,000 -1,300 Descending Atlanta Center
Fri 10:43:08 PM 32.3636 -85.1650 317° Northwest 242 278 6,700 -1,300 Descending Atlanta Center
Fri 10:44:08 PM 32.4153 -85.2200 318° Northwest 242 278 5,400 -1,350 Descending Atlanta Center
Fri 10:45:08 PM 32.4667 -85.2747 318° Northwest 242 278 4,000 -1,200 Descending Atlanta Center
Fri 10:46:08 PM 32.5100 -85.3394 308° West 242 278 3,000 -500 Descending Atlanta Center
Fri 10:47:08 PM 32.5553 -85.4017 311° West 242 278 3,000  Level Atlanta Center
Fri 10:50:00 PM 32.6000 -85.4333 308° West  Level FlightAware Approximate
Fri 10:57:00 PM 32.6151 -85.4340 308° West  Level Estimated
Fri 10:58:00 PM 32.6151 -85.4340 308° West  Level Estimated

Login

Don't have an account? Register now (free) for customized features, flight alerts, and more!